Time;durP1;ratioP1;P1;durP2;ratioP2;P2;SDS_P1;SDS_P2;PMS_P1;PMS_P2;Temp;Humidity;BMP_temperature;BMP_pressure;BME280_temperature;BME280_humidity;BME280_pressure;Samples;Min_cycle;Max_cycle;Signal;HPM_P1;HPM_P2
2023/02/23 00:00:27;;;;;;;28.58;20.00;;;9.80;99.90;;;;;;4960840;28;20034;-52
2023/02/23 00:03:13;;;;;;;29.35;19.85;;;9.70;99.90;;;;;;4974944;28;20027;-50
2023/02/23 00:06:02;;;;;;;27.67;19.52;;;9.80;99.90;;;;;;4974204;28;20027;-57
2023/02/23 00:08:48;;;;;;;27.65;20.13;;;9.80;99.90;;;;;;4974247;28;20027;-53
2023/02/23 00:11:34;;;;;;;27.55;19.65;;;9.80;99.90;;;;;;4973018;28;20058;-54
2023/02/23 00:14:26;;;;;;;24.42;19.25;;;9.80;99.90;;;;;;4974207;28;20057;-50
2023/02/23 00:17:16;;;;;;;25.92;19.88;;;9.80;99.90;;;;;;4973013;28;20065;-50
2023/02/23 00:20:10;;;;;;;25.48;20.05;;;9.80;99.90;;;;;;4974632;28;20030;-49
2023/02/23 00:22:56;;;;;;;27.00;20.23;;;9.80;99.90;;;;;;4971610;28;20830;-56
2023/02/23 00:25:45;;;;;;;32.60;20.40;;;9.70;99.90;;;;;;4972894;28;20038;-54
2023/02/23 00:28:31;;;;;;;24.50;18.58;;;9.70;99.90;;;;;;4972253;28;20034;-51
2023/02/23 00:31:16;;;;;;;30.15;20.30;;;9.70;99.90;;;;;;4972760;28;20041;-57
2023/02/23 00:34:04;;;;;;;29.73;20.45;;;9.70;99.90;;;;;;4974433;28;20023;-53
2023/02/23 00:36:53;;;;;;;28.08;20.10;;;9.70;99.90;;;;;;4968346;28;20047;-52
2023/02/23 00:39:38;;;;;;;25.65;20.38;;;9.70;99.90;;;;;;4972867;28;20114;-56
2023/02/23 00:42:28;;;;;;;25.80;19.05;;;9.80;99.90;;;;;;4972409;28;20027;-55
2023/02/23 00:45:14;;;;;;;27.50;21.02;;;9.80;99.90;;;;;;4953952;29;20042;-56
2023/02/23 00:48:02;;;;;;;24.67;19.95;;;9.70;99.90;;;;;;4955735;28;20070;-55
2023/02/23 00:51:00;;;;;;;27.77;20.30;;;9.70;99.90;;;;;;4972981;28;20061;-54
2023/02/23 00:53:46;;;;;;;29.70;20.05;;;9.70;99.90;;;;;;4950210;29;20035;-52
2023/02/23 00:56:33;;;;;;;26.88;19.98;;;9.70;99.90;;;;;;4959226;28;20062;-54
2023/02/23 00:59:19;;;;;;;30.77;20.95;;;9.60;99.90;;;;;;4964922;28;20098;-50
2023/02/23 01:02:05;;;;;;;26.77;19.67;;;9.70;99.90;;;;;;4963942;28;20038;-51
2023/02/23 01:04:51;;;;;;;25.92;20.10;;;9.60;99.90;;;;;;4972209;28;20038;-52
2023/02/23 01:07:37;;;;;;;27.20;20.70;;;9.60;99.90;;;;;;4971195;28;20125;-53
2023/02/23 01:10:23;;;;;;;27.58;19.23;;;9.50;99.90;;;;;;4971785;28;20026;-53
2023/02/23 01:13:10;;;;;;;30.23;20.30;;;9.40;99.90;;;;;;4971856;28;20031;-50
2023/02/23 01:15:56;;;;;;;26.77;19.63;;;9.50;99.90;;;;;;4971828;28;20520;-50
2023/02/23 01:18:43;;;;;;;25.35;18.90;;;9.40;99.90;;;;;;4973367;28;20026;-53
2023/02/23 01:21:32;;;;;;;25.60;19.20;;;9.40;99.90;;;;;;4954797;28;20046;-51
2023/02/23 01:24:18;;;;;;;23.05;18.20;;;9.40;99.90;;;;;;4956829;28;20055;-55
2023/02/23 01:27:04;;;;;;;25.40;19.13;;;9.30;99.90;;;;;;4972927;28;20030;-54
2023/02/23 01:29:52;;;;;;;26.77;20.40;;;9.40;99.90;;;;;;4971703;28;20054;-54
2023/02/23 01:32:40;;;;;;;30.17;20.67;;;9.40;99.90;;;;;;4960001;28;20035;-56
2023/02/23 01:35:26;;;;;;;26.00;20.17;;;9.30;99.90;;;;;;4973005;28;20030;-55
2023/02/23 01:38:12;;;;;;;27.50;20.70;;;9.30;99.90;;;;;;4972249;28;20062;-55
2023/02/23 01:40:58;;;;;;;30.00;20.48;;;9.30;99.90;;;;;;4971997;28;20031;-54
2023/02/23 01:44:02;;;;;;;30.25;21.13;;;9.30;99.90;;;;;;4966317;28;20030;-54
2023/02/23 01:46:49;;;;;;;38.60;25.20;;;9.30;99.90;;;;;;4973133;28;20104;-57
2023/02/23 01:49:35;;;;;;;47.35;30.45;;;9.20;99.90;;;;;;4972699;28;20078;-56
2023/02/23 01:52:21;;;;;;;35.60;25.48;;;9.10;99.90;;;;;;4972359;28;20041;-54
2023/02/23 01:55:11;;;;;;;30.88;22.02;;;9.10;99.90;;;;;;4953236;29;20074;-54
2023/02/23 01:58:14;;;;;;;33.90;22.58;;;9.10;99.90;;;;;;4952801;29;20035;-56
2023/02/23 02:01:01;;;;;;;34.03;22.35;;;9.10;99.90;;;;;;4959506;28;20034;-53
2023/02/23 02:03:56;;;;;;;30.23;22.25;;;9.10;99.90;;;;;;4971130;28;20031;-56
2023/02/23 02:06:44;;;;;;;33.13;22.48;;;9.10;99.90;;;;;;4971282;28;20110;-50
2023/02/23 02:09:37;;;;;;;30.33;21.58;;;9.10;99.90;;;;;;4972819;28;20039;-52
2023/02/23 02:12:24;;;;;;;30.13;21.38;;;9.10;99.90;;;;;;4973825;28;20038;-54
2023/02/23 02:15:16;;;;;;;28.48;21.00;;;9.10;99.90;;;;;;4966344;28;20046;-50
2023/02/23 02:18:32;;;;;;;28.92;20.92;;;9.00;99.90;;;;;;4956104;29;20031;-58
2023/02/23 02:21:56;;;;;;;30.00;21.05;;;8.90;99.90;;;;;;4973572;28;20019;-54
2023/02/23 02:24:48;;;;;;;28.73;21.48;;;8.80;99.90;;;;;;4969178;28;20034;-56
2023/02/23 02:27:56;;;;;;;30.25;21.00;;;8.80;99.90;;;;;;4955453;29;20027;-56
2023/02/23 02:31:14;;;;;;;33.45;22.05;;;8.80;99.90;;;;;;4968448;28;20038;-53
2023/02/23 02:34:18;;;;;;;28.88;21.60;;;8.70;99.90;;;;;;4974964;28;20633;-54
2023/02/23 02:37:10;;;;;;;33.78;23.10;;;8.70;99.90;;;;;;4955710;29;20063;-52
2023/02/23 02:40:21;;;;;;;29.60;21.30;;;8.80;99.90;;;;;;4968258;28;20030;-54
2023/02/23 02:43:17;;;;;;;32.35;22.17;;;8.80;99.90;;;;;;4956389;28;20046;-55
2023/02/23 02:46:16;;;;;;;28.92;22.05;;;8.80;99.90;;;;;;4956957;28;20074;-52
2023/02/23 02:49:13;;;;;;;29.35;21.25;;;8.90;99.90;;;;;;4960049;28;20023;-52
2023/02/23 02:52:04;;;;;;;34.63;21.35;;;8.90;99.90;;;;;;4976308;28;20029;-51
2023/02/23 02:54:55;;;;;;;31.08;21.65;;;8.90;99.90;;;;;;4975045;28;20511;-54
2023/02/23 02:57:45;;;;;;;28.80;21.65;;;8.90;99.90;;;;;;4975337;28;20023;-55
2023/02/23 04:18:25;;;;;;;33.47;23.38;;;8.60;99.90;;;;;;4954197;29;20448;-53
2023/02/23 04:21:11;;;;;;;36.45;23.65;;;8.60;99.90;;;;;;4961877;28;20030;-53
2023/02/23 04:23:57;;;;;;;38.75;24.80;;;8.70;99.90;;;;;;4972546;28;20027;-54
2023/02/23 04:26:43;;;;;;;35.63;23.83;;;8.70;99.90;;;;;;4973588;28;20095;-51
2023/02/23 04:29:28;;;;;;;34.65;24.50;;;8.70;99.90;;;;;;4972546;28;20118;-51
2023/02/23 04:32:18;;;;;;;36.15;24.08;;;8.70;99.90;;;;;;4972422;28;20050;-56
2023/02/23 04:35:04;;;;;;;31.77;23.55;;;8.80;99.90;;;;;;4972643;28;20125;-52
2023/02/23 04:37:50;;;;;;;34.97;23.75;;;8.80;99.90;;;;;;4971475;28;20023;-53
2023/02/23 04:40:36;;;;;;;35.42;25.45;;;8.80;99.90;;;;;;4972745;28;20035;-55
2023/02/23 04:43:22;;;;;;;35.47;24.77;;;8.80;99.90;;;;;;4973566;28;20031;-53
2023/02/23 04:46:07;;;;;;;37.78;26.08;;;8.80;99.90;;;;;;4972135;28;20022;-56
2023/02/23 04:48:53;;;;;;;31.88;23.95;;;8.70;99.90;;;;;;4972257;28;20122;-54
2023/02/23 04:51:39;;;;;;;36.28;23.38;;;8.70;99.90;;;;;;4972291;28;20026;-51
2023/02/23 04:54:25;;;;;;;38.38;24.55;;;8.80;99.90;;;;;;4972827;28;20046;-50
2023/02/23 04:57:11;;;;;;;51.78;34.45;;;8.80;99.90;;;;;;4953771;29;20024;-55
2023/02/23 04:59:57;;;;;;;90.40;54.47;;;8.70;99.90;;;;;;4961012;28;20109;-52
2023/02/23 05:02:44;;;;;;;61.88;38.90;;;8.70;99.90;;;;;;4973759;28;20027;-53
2023/02/23 05:05:30;;;;;;;39.40;26.33;;;8.80;99.90;;;;;;4961180;28;20057;-51
2023/02/23 05:08:16;;;;;;;32.40;22.38;;;8.70;99.90;;;;;;4971724;28;20038;-50
2023/02/23 05:11:02;;;;;;;30.10;22.17;;;8.70;99.90;;;;;;4971772;28;20046;-51
2023/02/23 05:13:48;;;;;;;29.58;20.77;;;8.70;99.90;;;;;;4972101;28;20495;-50
2023/02/23 05:16:34;;;;;;;31.08;20.20;;;8.70;99.90;;;;;;4972351;28;20122;-51
2023/02/23 05:19:20;;;;;;;29.77;20.88;;;8.70;99.90;;;;;;4972023;28;20035;-51
2023/02/23 05:22:06;;;;;;;31.48;21.58;;;8.70;99.90;;;;;;4972891;28;20027;-51
2023/02/23 05:24:52;;;;;;;29.52;21.38;;;8.70;99.90;;;;;;4973298;28;20035;-50
2023/02/23 05:27:39;;;;;;;32.50;22.55;;;8.70;99.90;;;;;;4972055;28;20089;-54
2023/02/23 05:30:25;;;;;;;30.85;23.05;;;8.70;99.90;;;;;;4971934;28;20110;-53
2023/02/23 05:33:12;;;;;;;31.10;22.55;;;8.70;99.90;;;;;;4973169;28;20029;-51
2023/02/23 05:35:58;;;;;;;30.77;22.23;;;8.70;99.90;;;;;;4972696;28;20085;-52
2023/02/23 05:38:45;;;;;;;32.70;21.50;;;8.60;99.90;;;;;;4974070;28;20110;-51
2023/02/23 05:41:31;;;;;;;28.60;20.75;;;8.60;99.90;;;;;;4972498;28;20031;-54
2023/02/23 05:44:17;;;;;;;27.90;20.88;;;8.60;99.90;;;;;;4973664;28;20042;-52
2023/02/23 05:47:03;;;;;;;34.67;22.58;;;8.50;99.90;;;;;;4975541;28;20495;-51
2023/02/23 05:49:49;;;;;;;29.63;20.98;;;8.60;99.90;;;;;;4975771;28;20042;-56
2023/02/23 05:52:40;;;;;;;31.85;21.60;;;8.60;99.90;;;;;;4975902;28;20041;-52
2023/02/23 05:55:26;;;;;;;31.98;22.45;;;8.60;99.90;;;;;;4957143;29;20066;-58
2023/02/23 05:58:12;;;;;;;35.13;22.83;;;8.60;99.90;;;;;;4961528;28;20041;-55
2023/02/23 06:00:58;;;;;;;28.40;21.15;;;8.60;99.90;;;;;;4975512;28;20034;-56
2023/02/23 06:03:45;;;;;;;29.70;21.48;;;8.60;99.90;;;;;;4977194;28;20031;-56
2023/02/23 06:06:31;;;;;;;29.50;21.73;;;8.60;99.90;;;;;;4975626;28;20118;-54
2023/02/23 06:09:17;;;;;;;34.05;22.85;;;8.70;99.90;;;;;;4975363;28;20035;-55
2023/02/23 06:12:03;;;;;;;34.63;23.15;;;8.70;99.90;;;;;;4975127;28;20031;-56
2023/02/23 06:14:49;;;;;;;115.63;63.40;;;8.70;99.90;;;;;;4977013;28;20035;-54
2023/02/23 06:17:36;;;;;;;164.85;85.70;;;8.70;99.90;;;;;;4956375;29;20028;-55
2023/02/23 06:20:22;;;;;;;75.55;43.65;;;8.70;99.90;;;;;;4970233;28;20027;-56
2023/02/23 06:23:08;;;;;;;44.63;29.55;;;8.70;99.90;;;;;;4974591;28;20077;-57
2023/02/23 06:25:54;;;;;;;35.97;23.60;;;8.70;99.90;;;;;;4974897;28;20030;-58
2023/02/23 06:28:40;;;;;;;30.05;22.35;;;8.60;99.90;;;;;;4976341;28;20145;-55
2023/02/23 06:31:26;;;;;;;31.00;22.13;;;8.70;99.90;;;;;;4975120;28;20110;-52
2023/02/23 06:34:12;;;;;;;27.17;20.88;;;8.70;99.90;;;;;;4974900;28;20534;-57
2023/02/23 06:36:58;;;;;;;30.67;21.95;;;8.70;99.90;;;;;;4976214;28;20034;-55
2023/02/23 06:39:44;;;;;;;45.15;22.75;;;8.80;99.90;;;;;;4975214;28;20034;-57
2023/02/23 06:42:30;;;;;;;42.95;25.15;;;8.80;99.90;;;;;;4974912;28;20122;-56
2023/02/23 06:45:18;;;;;;;33.65;21.65;;;8.80;99.90;;;;;;4975227;28;20516;-52
2023/02/23 06:48:04;;;;;;;36.65;24.48;;;8.80;99.90;;;;;;4976215;28;20031;-52
2023/02/23 06:50:50;;;;;;;45.97;25.70;;;8.80;99.90;;;;;;4973801;28;20575;-57
2023/02/23 06:53:36;;;;;;;31.23;22.98;;;8.80;99.90;;;;;;4961022;28;20042;-54
2023/02/23 06:56:22;;;;;;;33.17;23.80;;;8.80;99.90;;;;;;4971813;28;20035;-52
2023/02/23 06:59:08;;;;;;;35.42;24.90;;;8.80;99.90;;;;;;4974777;28;20026;-56
2023/02/23 07:01:54;;;;;;;35.10;24.50;;;8.90;99.90;;;;;;4974767;28;20043;-52
2023/02/23 07:04:40;;;;;;;36.35;24.98;;;8.80;99.90;;;;;;4974237;28;20394;-53
2023/02/23 07:07:26;;;;;;;33.60;24.05;;;8.90;99.90;;;;;;4973884;28;20023;-55
2023/02/23 07:10:12;;;;;;;31.50;24.38;;;9.00;99.90;;;;;;4974218;28;20031;-51
2023/02/23 07:12:58;;;;;;;36.50;24.23;;;9.00;99.90;;;;;;4975106;28;20054;-52
2023/02/23 07:15:44;;;;;;;37.70;23.80;;;9.00;99.90;;;;;;4974051;28;20031;-57
2023/02/23 07:18:30;;;;;;;40.05;24.17;;;9.00;99.90;;;;;;4973947;28;20439;-54
2023/02/23 07:21:16;;;;;;;43.22;25.40;;;9.00;99.90;;;;;;4974404;28;20026;-55
2023/02/23 07:24:03;;;;;;;38.67;26.75;;;9.00;99.90;;;;;;4973058;28;20110;-51
2023/02/23 07:26:50;;;;;;;55.22;33.45;;;9.10;99.90;;;;;;4973710;28;20372;-54
2023/02/23 07:29:36;;;;;;;51.08;29.67;;;9.10;99.90;;;;;;4974970;28;20114;-56
2023/02/23 07:32:22;;;;;;;36.88;25.42;;;9.20;99.90;;;;;;4974334;28;20035;-51
2023/02/23 07:35:09;;;;;;;35.75;23.88;;;9.30;99.90;;;;;;4975083;28;20031;-56
2023/02/23 07:37:55;;;;;;;36.20;23.77;;;9.30;99.90;;;;;;4954965;29;20115;-54
2023/02/23 07:40:41;;;;;;;43.65;26.30;;;9.30;99.90;;;;;;4972789;28;20031;-54
2023/02/23 07:43:27;;;;;;;37.78;24.08;;;9.30;99.90;;;;;;4974721;28;20027;-57
2023/02/23 07:46:14;;;;;;;40.33;25.35;;;9.40;99.90;;;;;;4953628;29;20050;-55
2023/02/23 07:49:00;;;;;;;45.17;26.60;;;9.50;99.90;;;;;;4958715;28;20023;-56
2023/02/23 07:51:46;;;;;;;39.33;26.05;;;9.50;99.90;;;;;;4973543;28;20065;-56
2023/02/23 07:54:32;;;;;;;41.03;25.55;;;9.50;99.90;;;;;;4972965;28;20027;-55
2023/02/23 07:57:21;;;;;;;44.97;27.42;;;9.60;99.90;;;;;;4972245;28;20459;-55
2023/02/23 08:00:07;;;;;;;62.50;36.05;;;9.60;99.90;;;;;;4972826;28;20463;-55
2023/02/23 08:02:53;;;;;;;47.45;28.95;;;9.60;99.90;;;;;;4973863;28;20023;-55
2023/02/23 08:05:39;;;;;;;60.83;38.22;;;9.70;99.90;;;;;;4973839;28;20062;-54
2023/02/23 08:08:26;;;;;;;43.83;28.45;;;9.70;99.90;;;;;;4973810;28;20121;-57
2023/02/23 08:11:12;;;;;;;33.38;24.20;;;9.80;99.90;;;;;;4975052;28;20035;-55
2023/02/23 08:13:59;;;;;;;31.33;23.92;;;9.80;99.90;;;;;;4953638;29;20042;-54
2023/02/23 08:16:45;;;;;;;34.88;23.83;;;9.80;99.90;;;;;;4967262;28;20038;-55
2023/02/23 08:19:33;;;;;;;30.63;22.75;;;9.80;99.90;;;;;;4973098;28;20022;-57
2023/02/23 08:22:20;;;;;;;37.70;27.15;;;9.90;99.90;;;;;;4972500;28;20027;-57
2023/02/23 08:25:09;;;;;;;35.03;22.33;;;9.90;99.90;;;;;;4973038;28;20516;-55
2023/02/23 08:27:55;;;;;;;33.65;21.83;;;9.90;99.90;;;;;;4961525;28;20459;-57
2023/02/23 08:30:41;;;;;;;30.73;22.05;;;9.90;99.90;;;;;;4971609;28;20030;-56
2023/02/23 08:33:30;;;;;;;29.98;22.38;;;9.80;99.90;;;;;;4973782;28;20031;-56
2023/02/23 08:36:16;;;;;;;33.60;23.88;;;9.80;99.90;;;;;;4971739;28;20039;-57
2023/02/23 08:39:02;;;;;;;31.02;22.45;;;9.90;99.90;;;;;;4974134;28;20035;-55
2023/02/23 08:41:48;;;;;;;39.67;29.63;;;9.80;99.90;;;;;;4973349;28;20516;-54
2023/02/23 08:44:34;;;;;;;37.17;26.55;;;9.90;99.90;;;;;;4972555;28;20066;-57
2023/02/23 08:47:22;;;;;;;35.83;26.02;;;10.00;99.90;;;;;;4969325;28;20078;-57
2023/02/23 08:50:09;;;;;;;39.70;25.00;;;9.90;99.90;;;;;;4972553;28;20022;-56
2023/02/23 08:52:55;;;;;;;34.92;25.75;;;9.90;99.90;;;;;;4972240;28;20115;-57
2023/02/23 08:55:41;;;;;;;37.90;24.15;;;9.90;99.90;;;;;;4978946;28;20049;-55
2023/02/23 08:58:32;;;;;;;32.78;23.50;;;10.00;99.90;;;;;;4982871;28;20045;-55
2023/02/23 09:01:20;;;;;;;44.50;25.73;;;10.10;99.90;;;;;;4973920;28;20106;-55
2023/02/23 09:04:06;;;;;;;38.63;26.17;;;10.30;99.90;;;;;;4974227;28;20062;-58
2023/02/23 09:06:53;;;;;;;39.08;26.50;;;10.40;99.90;;;;;;4957619;28;20122;-56
2023/02/23 09:09:39;;;;;;;37.80;28.20;;;10.50;99.90;;;;;;4954886;28;20039;-59
2023/02/23 09:12:27;;;;;;;42.90;29.48;;;10.50;99.90;;;;;;4971764;28;20034;-59
2023/02/23 09:15:13;;;;;;;41.58;28.58;;;10.50;99.90;;;;;;4973227;28;20034;-53
2023/02/23 09:18:01;;;;;;;38.90;29.60;;;10.70;99.90;;;;;;4968298;28;20035;-53
2023/02/23 09:20:47;;;;;;;42.35;29.05;;;10.60;99.90;;;;;;4972851;28;20074;-52
2023/02/23 09:23:36;;;;;;;44.67;29.80;;;10.80;99.90;;;;;;4972540;28;20027;-58
2023/02/23 09:26:23;;;;;;;37.97;28.10;;;10.90;99.90;;;;;;4973777;28;20027;-51
2023/02/23 09:29:09;;;;;;;40.30;28.80;;;10.90;99.90;;;;;;4972768;28;20110;-53
2023/02/23 09:31:56;;;;;;;42.72;29.10;;;10.90;99.90;;;;;;4971914;28;20054;-52
2023/02/23 09:34:42;;;;;;;39.78;28.65;;;10.90;99.90;;;;;;4975714;28;20039;-53
2023/02/23 09:37:28;;;;;;;41.67;28.30;;;11.00;99.90;;;;;;4971844;28;20058;-55
2023/02/23 09:40:21;;;;;;;42.67;30.52;;;11.10;99.90;;;;;;4972669;28;20091;-55
2023/02/23 09:43:41;;;;;;;41.75;29.17;;;11.20;99.90;;;;;;4972941;28;20045;-53
2023/02/23 09:46:37;;;;;;;36.90;27.35;;;11.20;99.90;;;;;;4968879;28;20408;-50
2023/02/23 09:49:32;;;;;;;39.72;30.00;;;11.20;99.90;;;;;;4957637;28;20365;-55
2023/02/23 09:52:27;;;;;;;44.60;30.17;;;11.30;99.90;;;;;;4956640;28;20117;-55
2023/02/23 09:55:14;;;;;;;40.47;29.50;;;11.30;99.90;;;;;;4971366;28;20474;-57
2023/02/23 09:58:15;;;;;;;39.83;30.45;;;11.40;99.90;;;;;;4972010;28;20528;-61
2023/02/23 10:01:14;;;;;;;40.67;29.73;;;11.40;99.90;;;;;;4967784;28;20023;-53
2023/02/23 10:04:14;;;;;;;41.55;30.40;;;11.40;99.90;;;;;;4954347;29;20023;-52
2023/02/23 10:07:25;;;;;;;45.03;32.72;;;11.50;99.90;;;;;;4952543;29;20035;-53
2023/02/23 10:10:41;;;;;;;42.70;31.77;;;11.50;99.90;;;;;;4952549;29;20074;-56
2023/02/23 10:14:01;;;;;;;45.33;32.10;;;11.60;99.90;;;;;;4960286;28;20038;-54
2023/02/23 10:17:14;;;;;;;49.75;33.03;;;11.60;99.90;;;;;;4952719;29;20402;-57
2023/02/23 10:20:19;;;;;;;49.13;31.73;;;11.60;99.90;;;;;;4952920;29;20020;-55
2023/02/23 10:23:17;;;;;;;48.88;34.00;;;11.70;99.90;;;;;;4953439;29;20027;-57
2023/02/23 10:26:15;;;;;;;45.80;33.97;;;11.70;99.90;;;;;;4955258;28;20024;-56
2023/02/23 10:29:02;;;;;;;44.25;33.65;;;11.70;99.90;;;;;;4953245;28;20030;-55
2023/02/23 10:31:55;;;;;;;46.35;33.17;;;11.80;99.90;;;;;;4955201;28;20043;-52
2023/02/23 10:34:44;;;;;;;44.22;34.60;;;11.90;99.90;;;;;;4956333;28;20034;-49
2023/02/23 10:37:31;;;;;;;45.53;34.10;;;12.00;99.90;;;;;;4955678;28;20031;-49
2023/02/23 10:40:28;;;;;;;53.08;36.20;;;12.00;99.90;;;;;;4957639;28;20099;-56
2023/02/23 10:43:14;;;;;;;54.15;37.63;;;12.30;99.90;;;;;;4956778;29;20019;-49
2023/02/23 10:46:01;;;;;;;53.25;37.55;;;12.10;99.90;;;;;;4956655;29;20034;-52
2023/02/23 10:48:49;;;;;;;53.88;37.80;;;12.10;99.90;;;;;;4955783;29;20027;-50
2023/02/23 10:51:38;;;;;;;53.88;39.42;;;12.10;99.90;;;;;;4957195;28;20078;-54
2023/02/23 10:54:46;;;;;;;51.75;39.58;;;12.10;99.90;;;;;;4955654;29;20377;-52
2023/02/23 10:57:36;;;;;;;60.65;40.25;;;12.20;99.90;;;;;;4956433;29;20511;-49
2023/02/23 11:00:31;;;;;;;56.38;39.72;;;12.30;99.90;;;;;;4956742;29;20209;-50
2023/02/23 11:03:32;;;;;;;58.17;39.65;;;12.20;99.90;;;;;;4956803;28;20524;-54
2023/02/23 11:06:34;;;;;;;67.03;44.28;;;12.30;99.90;;;;;;4957324;29;20032;-53
2023/02/23 11:09:23;;;;;;;68.22;43.63;;;12.30;99.90;;;;;;4958224;28;20507;-53
2023/02/23 11:12:22;;;;;;;61.75;43.83;;;12.20;99.90;;;;;;4957617;29;20031;-51
2023/02/23 11:15:25;;;;;;;63.58;42.42;;;12.10;99.90;;;;;;4962240;28;20035;-54
2023/02/23 11:18:23;;;;;;;60.80;42.85;;;12.30;99.90;;;;;;4975785;28;20447;-54
2023/02/23 11:21:12;;;;;;;63.90;43.92;;;12.30;99.90;;;;;;4975478;28;20578;-52
2023/02/23 11:24:05;;;;;;;60.22;41.65;;;12.30;99.90;;;;;;4977547;28;20034;-55
2023/02/23 11:27:02;;;;;;;59.15;39.85;;;12.30;99.90;;;;;;4975236;28;20042;-54
2023/02/23 11:29:52;;;;;;;63.58;41.88;;;12.40;99.90;;;;;;4958620;28;20047;-54
2023/02/23 11:32:41;;;;;;;64.78;41.55;;;12.40;99.90;;;;;;4975225;28;20038;-56
2023/02/23 11:35:29;;;;;;;62.83;42.33;;;12.40;99.90;;;;;;4957027;28;20035;-57
2023/02/23 11:38:21;;;;;;;56.90;38.33;;;12.60;99.90;;;;;;4963939;28;20015;-55
2023/02/23 11:41:22;;;;;;;60.80;42.67;;;12.50;99.90;;;;;;4974936;28;20038;-52
2023/02/23 11:44:20;;;;;;;59.47;40.97;;;12.10;99.90;;;;;;4971067;28;20053;-54
2023/02/23 11:47:17;;;;;;;62.50;40.63;;;11.90;99.90;;;;;;4969977;28;20090;-52
2023/02/23 11:50:05;;;;;;;64.20;42.92;;;11.90;99.90;;;;;;4974562;28;20038;-52
2023/02/23 11:53:15;;;;;;;60.58;43.25;;;12.00;99.90;;;;;;4975200;28;20031;-49
2023/02/23 11:56:09;;;;;;;61.92;42.28;;;12.00;99.90;;;;;;4975433;28;20543;-53
2023/02/23 11:59:00;;;;;;;61.83;41.38;;;12.10;99.90;;;;;;4974422;28;20038;-55
2023/02/23 12:01:50;;;;;;;62.70;43.17;;;12.20;99.90;;;;;;4967919;28;20035;-49
2023/02/23 12:04:39;;;;;;;63.67;43.20;;;12.30;99.90;;;;;;4975858;28;20030;-50
2023/02/23 12:07:40;;;;;;;63.95;43.15;;;12.40;99.90;;;;;;4974199;28;20089;-58
2023/02/23 12:10:29;;;;;;;66.28;45.20;;;12.50;99.90;;;;;;4986617;28;20164;-51
2023/02/23 12:13:33;;;;;;;65.70;45.05;;;12.70;99.90;;;;;;4989216;28;20054;-51
2023/02/23 12:16:25;;;;;;;66.32;45.17;;;12.70;99.90;;;;;;4986779;28;20035;-58
2023/02/23 12:19:30;;;;;;;65.45;44.65;;;12.70;99.90;;;;;;4989020;28;20026;-50
2023/02/23 12:22:25;;;;;;;58.95;43.38;;;12.50;99.90;;;;;;4973852;28;20023;-54
2023/02/23 12:25:19;;;;;;;;;;;12.30;99.90;;;;;;4975387;28;20042;-51
2023/02/23 12:28:30;;;;;;;64.35;43.70;;;12.10;99.90;;;;;;4974265;28;20342;-53
2023/02/23 12:31:32;;;;;;;63.28;43.28;;;12.00;99.90;;;;;;4973200;28;20038;-52
2023/02/23 12:34:34;;;;;;;63.42;44.25;;;12.10;99.90;;;;;;4973498;28;20054;-55
2023/02/23 12:37:28;;;;;;;66.63;42.78;;;12.10;99.90;;;;;;4972691;28;20065;-53
2023/02/23 12:40:29;;;;;;;63.88;43.40;;;12.10;99.90;;;;;;4973448;28;20027;-52
2023/02/23 12:43:48;;;;;;;63.85;42.63;;;12.10;99.90;;;;;;4953914;29;20492;-54
2023/02/23 12:46:42;;;;;;;65.28;42.03;;;12.10;99.90;;;;;;4964252;28;20034;-53
2023/02/23 12:49:39;;;;;;;59.85;42.00;;;12.20;99.90;;;;;;4973346;28;20173;-52
2023/02/23 12:52:29;;;;;;;61.20;41.67;;;12.20;99.90;;;;;;4974238;28;20066;-54
2023/02/23 12:55:25;;;;;;;60.65;43.25;;;12.20;99.90;;;;;;4971719;28;20031;-56
2023/02/23 12:58:38;;;;;;;67.88;44.72;;;12.10;99.90;;;;;;4972683;28;20023;-51
2023/02/23 13:01:28;;;;;;;63.80;42.65;;;12.20;99.90;;;;;;4954127;28;20094;-53
2023/02/23 13:04:38;;;;;;;66.88;44.25;;;12.00;99.90;;;;;;4971563;28;20070;-49
2023/02/23 13:07:54;;;;;;;71.60;45.38;;;12.10;99.90;;;;;;4971880;28;20054;-54
2023/02/23 13:10:47;;;;;;;64.55;43.13;;;12.30;99.90;;;;;;4973479;28;20031;-51
2023/02/23 13:13:57;;;;;;;62.45;43.80;;;12.30;99.90;;;;;;4972569;28;20023;-50
2023/02/23 13:17:14;;;;;;;65.68;43.58;;;12.20;99.90;;;;;;4971779;28;20113;-56
2023/02/23 13:20:37;;;;;;;62.38;42.17;;;12.30;99.90;;;;;;4973410;28;20030;-52
2023/02/23 13:24:01;;;;;;;68.05;44.58;;;12.40;99.90;;;;;;4943128;28;20031;-52
2023/02/23 13:27:16;;;;;;;69.10;44.55;;;12.50;99.90;;;;;;4952143;28;20031;-51
2023/02/23 13:30:03;;;;;;;72.60;46.15;;;12.50;99.90;;;;;;4971810;28;20165;-50
2023/02/23 13:32:49;;;;;;;69.15;44.47;;;12.50;99.90;;;;;;4972036;28;20121;-54
2023/02/23 13:35:41;;;;;;;67.95;43.10;;;12.50;99.90;;;;;;4971927;28;20122;-53
2023/02/23 13:38:38;;;;;;;69.03;44.17;;;12.50;99.90;;;;;;4971391;28;20488;-56
2023/02/23 13:41:23;;;;;;;64.45;43.50;;;12.50;99.90;;;;;;4973610;28;20034;-54
2023/02/23 13:44:16;;;;;;;67.30;44.88;;;12.20;99.90;;;;;;4972910;28;20484;-53
2023/02/23 13:47:13;;;;;;;65.13;43.17;;;12.20;99.90;;;;;;4971531;28;20039;-55
2023/02/23 13:50:03;;;;;;;64.90;44.80;;;12.30;99.90;;;;;;4971514;28;20122;-53
2023/02/23 13:52:57;;;;;;;64.20;43.63;;;12.30;99.90;;;;;;4970069;28;20015;-55
2023/02/23 13:55:50;;;;;;;60.00;42.83;;;12.40;99.90;;;;;;4973194;28;20050;-54
2023/02/23 13:58:36;;;;;;;63.53;42.35;;;12.50;99.90;;;;;;4971954;28;20023;-57
2023/02/23 14:01:30;;;;;;;68.25;43.90;;;12.60;99.90;;;;;;4957323;28;20040;-51
2023/02/23 14:04:32;;;;;;;64.95;44.95;;;12.60;99.90;;;;;;4972111;28;20027;-55
2023/02/23 14:07:43;;;;;;;62.40;42.60;;;12.60;99.90;;;;;;4975762;28;20113;-55
2023/02/23 14:10:44;;;;;;;67.07;44.20;;;12.40;99.90;;;;;;4975728;28;20037;-55
2023/02/23 14:13:32;;;;;;;70.38;44.97;;;12.50;99.90;;;;;;4976742;28;20050;-55
2023/02/23 14:16:19;;;;;;;63.72;41.40;;;12.50;99.90;;;;;;4975219;28;20138;-52
2023/02/23 14:19:10;;;;;;;64.05;45.22;;;12.50;99.90;;;;;;4975656;28;20054;-52
2023/02/23 14:22:03;;;;;;;64.65;44.38;;;12.50;99.90;;;;;;4976154;28;20066;-51
2023/02/23 14:25:26;;;;;;;67.03;44.65;;;12.40;99.90;;;;;;4976226;28;20093;-51
2023/02/23 14:28:34;;;;;;;66.88;45.28;;;12.40;99.90;;;;;;4974917;28;20015;-55
2023/02/23 14:31:21;;;;;;;66.00;44.10;;;12.50;99.90;;;;;;4977907;28;20053;-52
2023/02/23 14:34:11;;;;;;;72.88;45.72;;;12.40;99.90;;;;;;4957304;28;20029;-56
2023/02/23 14:37:12;;;;;;;67.53;44.88;;;12.40;99.90;;;;;;4959260;28;20077;-54
2023/02/23 14:40:18;;;;;;;69.05;45.53;;;12.30;99.90;;;;;;4975369;28;20023;-58
2023/02/23 14:43:24;;;;;;;;;;;12.30;99.90;;;;;;4976779;28;20111;-57
2023/02/23 14:46:15;;;;;;;63.80;45.33;;;12.20;99.90;;;;;;4975784;28;19910;-60
2023/02/23 14:49:09;;;;;;;70.35;46.55;;;12.20;99.90;;;;;;4972641;28;20039;-49
2023/02/23 14:51:59;;;;;;;71.75;48.13;;;12.20;99.90;;;;;;4974384;28;20045;-58
2023/02/23 14:54:45;;;;;;;68.93;45.85;;;12.30;99.90;;;;;;4985734;28;20050;-58
2023/02/23 14:57:35;;;;;;;72.53;47.65;;;12.20;99.90;;;;;;4981616;28;20472;-56
2023/02/23 15:00:31;;;;;;;75.22;47.25;;;12.20;99.90;;;;;;4974759;28;20086;-52
2023/02/23 15:03:17;;;;;;;71.65;46.95;;;12.10;99.90;;;;;;4956381;28;20031;-57
2023/02/23 15:06:04;;;;;;;69.45;47.67;;;12.10;99.90;;;;;;4960354;28;20023;-54
2023/02/23 15:08:50;;;;;;;74.47;46.50;;;12.00;99.90;;;;;;4973536;28;20035;-53
2023/02/23 15:11:36;;;;;;;70.00;48.10;;;12.00;99.90;;;;;;4974946;28;20460;-55
2023/02/23 15:14:23;;;;;;;72.65;49.03;;;11.90;99.90;;;;;;4974718;28;20027;-50
2023/02/23 15:17:16;;;;;;;69.97;47.65;;;11.80;99.90;;;;;;4973323;28;20038;-53
2023/02/23 15:20:05;;;;;;;79.03;50.80;;;11.80;99.90;;;;;;4973924;28;20537;-52
2023/02/23 15:22:54;;;;;;;74.70;49.72;;;11.80;99.90;;;;;;4973231;28;20035;-51
2023/02/23 15:25:40;;;;;;;78.35;50.20;;;11.80;99.90;;;;;;4974609;28;20034;-56
2023/02/23 15:28:31;;;;;;;80.22;51.85;;;11.70;99.90;;;;;;4967702;28;20038;-57
2023/02/23 15:31:18;;;;;;;76.25;49.75;;;11.70;99.90;;;;;;4957208;28;20031;-55
2023/02/23 15:34:04;;;;;;;74.65;50.67;;;11.70;99.90;;;;;;4973256;28;20031;-58
2023/02/23 15:36:55;;;;;;;76.70;51.25;;;11.70;99.90;;;;;;4974348;28;20026;-50
2023/02/23 15:39:58;;;;;;;80.38;51.70;;;11.70;99.90;;;;;;4973643;28;20403;-53
2023/02/23 15:42:48;;;;;;;84.53;53.22;;;11.60;99.90;;;;;;4974209;28;20019;-54
2023/02/23 15:45:39;;;;;;;83.50;53.20;;;11.60;99.90;;;;;;4975704;28;20129;-54
2023/02/23 15:48:29;;;;;;;77.55;52.85;;;11.50;99.90;;;;;;4973759;28;20049;-54
2023/02/23 15:51:35;;;;;;;76.82;51.88;;;11.40;99.90;;;;;;4974344;28;20037;-54
2023/02/23 15:54:26;;;;;;;86.05;53.55;;;11.40;99.90;;;;;;4954708;29;20090;-55